Time;durP1;ratioP1;P1;durP2;ratioP2;P2;SDS_P1;SDS_P2;PMS_P1;PMS_P2;Temp;Humidity;BMP_temperature;BMP_pressure;BME280_temperature;BME280_humidity;BME280_pressure;Samples;Min_cycle;Max_cycle;Signal;HPM_P1;HPM_P2
2023/06/09 00:01:35;;;;;;;8.15;5.05;;;;;;;16.09;100.00;97288.81;5130465;27;20030;-75
2023/06/09 00:04:06;;;;;;;8.32;5.10;;;;;;;16.06;100.00;97281.00;5131147;27;20026;-75
2023/06/09 00:06:31;;;;;;;19.00;5.75;;;;;;;16.06;100.00;97286.38;5116673;27;20474;-75
2023/06/09 00:08:57;;;;;;;9.30;4.85;;;;;;;16.00;100.00;97278.84;5132423;27;20050;-75
2023/06/09 00:11:23;;;;;;;11.20;5.93;;;;;;;15.90;100.00;97277.97;5110417;27;20051;-76
2023/06/09 00:13:49;;;;;;;13.18;5.57;;;;;;;15.88;100.00;97274.50;5134153;27;20030;-76
2023/06/09 00:16:15;;;;;;;11.90;5.55;;;;;;;15.82;100.00;97277.75;5116894;27;20420;-75
2023/06/09 00:18:41;;;;;;;13.30;5.57;;;;;;;15.91;100.00;97285.91;5116945;27;20043;-74
2023/06/09 00:21:07;;;;;;;9.80;5.93;;;;;;;15.76;100.00;97292.63;5116772;27;20117;-75
2023/06/09 00:23:33;;;;;;;8.48;6.20;;;;;;;15.71;100.00;97301.13;5116758;27;20110;-75
2023/06/09 00:25:59;;;;;;;17.73;6.22;;;;;;;15.67;100.00;97288.03;5116792;27;20114;-75
2023/06/09 00:28:24;;;;;;;11.48;6.18;;;;;;;15.65;100.00;97290.88;5134095;27;20109;-75
2023/06/09 00:30:50;;;;;;;11.68;6.57;;;;;;;15.61;100.00;97288.56;5134080;27;20077;-77
2023/06/09 00:33:15;;;;;;;11.55;6.22;;;;;;;15.53;100.00;97291.94;5117882;27;20023;-75
2023/06/09 00:35:41;;;;;;;8.10;6.28;;;;;;;15.56;100.00;97291.69;5116584;27;20034;-76
2023/06/09 00:38:07;;;;;;;10.98;5.95;;;;;;;15.55;100.00;97284.56;5133216;27;20031;-75
2023/06/09 00:40:32;;;;;;;11.35;5.72;;;;;;;15.49;100.00;97277.00;5134957;27;20056;-75
2023/06/09 00:42:59;;;;;;;10.82;5.57;;;;;;;15.51;100.00;97277.72;5133588;27;20034;-76
2023/06/09 00:45:24;;;;;;;8.82;5.72;;;;;;;15.55;100.00;97279.16;5133633;27;20414;-76
2023/06/09 00:47:51;;;;;;;9.55;5.57;;;;;;;15.43;100.00;97285.59;5133772;27;20039;-76
2023/06/09 00:50:19;;;;;;;10.65;6.30;;;;;;;15.41;100.00;97286.72;5116131;27;20027;-75
2023/06/09 00:52:46;;;;;;;11.95;6.30;;;;;;;15.35;100.00;97287.22;5116482;27;20474;-76
2023/06/09 00:55:12;;;;;;;11.52;6.25;;;;;;;15.28;100.00;97292.28;5113799;27;20466;-75
2023/06/09 00:57:39;;;;;;;10.45;5.95;;;;;;;15.26;100.00;97291.53;5127303;27;20026;-75
2023/06/09 01:00:06;;;;;;;10.73;6.47;;;;;;;15.25;100.00;97294.38;5133177;27;20514;-75
2023/06/09 01:02:33;;;;;;;12.90;5.95;;;;;;;15.24;100.00;97292.66;5105846;28;20023;-76
2023/06/09 01:04:58;;;;;;;13.02;6.60;;;;;;;15.25;100.00;97295.25;5129758;27;20027;-77
2023/06/09 01:07:45;;;;;;;9.02;6.20;;;;;;;15.24;100.00;97307.00;5133275;27;20030;-76
2023/06/09 01:10:18;;;;;;;12.63;6.43;;;;;;;15.24;100.00;97311.53;5115750;27;20027;-75
2023/06/09 01:13:11;;;;;;;16.27;6.60;;;;;;;15.20;100.00;97310.94;5133357;27;20468;-75
2023/06/09 01:15:47;;;;;;;;;;;;;;;15.18;100.00;97312.91;5134200;27;20019;-76
2023/06/09 01:18:14;;;;;;;10.02;5.57;;;;;;;15.13;100.00;97309.75;5132662;27;19915;-75
2023/06/09 01:20:56;;;;;;;10.63;5.35;;;;;;;15.05;100.00;97296.91;5115859;27;20027;-77
2023/06/09 01:23:32;;;;;;;9.10;5.40;;;;;;;15.05;100.00;97296.03;5132742;27;22920;-76
2023/06/09 01:25:59;;;;;;;9.65;5.45;;;;;;;15.02;100.00;97285.53;5132874;27;20401;-76
2023/06/09 01:28:25;;;;;;;18.05;5.68;;;;;;;15.03;100.00;97281.88;5132627;27;20446;-75
2023/06/09 01:30:51;;;;;;;12.85;6.00;;;;;;;15.00;100.00;97293.75;5132723;27;20034;-74
2023/06/09 01:33:25;;;;;;;11.38;6.20;;;;;;;15.08;100.00;97295.78;5115290;27;20090;-75
2023/06/09 01:35:51;;;;;;;7.88;5.18;;;;;;;15.06;100.00;97297.78;5115387;27;20022;-75
2023/06/09 01:38:21;;;;;;;8.27;5.32;;;;;;;15.05;100.00;97294.22;5115136;27;20050;-75
2023/06/09 01:40:48;;;;;;;13.52;6.35;;;;;;;15.05;100.00;97290.66;5132652;27;20098;-75
2023/06/09 01:43:13;;;;;;;12.00;5.75;;;;;;;14.99;100.00;97296.56;5132335;27;20015;-75
2023/06/09 01:45:39;;;;;;;10.95;5.78;;;;;;;14.91;100.00;97293.66;5115118;27;20027;-75
2023/06/09 01:48:39;;;;;;;14.32;6.10;;;;;;;14.97;100.00;97296.72;5117490;27;20153;-75
2023/06/09 01:51:31;;;;;;;12.40;6.57;;;;;;;15.02;100.00;97302.56;5106842;28;20081;-75
2023/06/09 01:54:24;;;;;;;12.40;6.00;;;;;;;15.00;100.00;97296.44;5106616;28;20024;-74
2023/06/09 01:56:59;;;;;;;12.07;6.60;;;;;;;14.92;100.00;97290.00;5102178;28;20039;-76
2023/06/09 01:59:28;;;;;;;11.65;6.55;;;;;;;14.95;100.00;97306.75;5130458;27;20076;-76
2023/06/09 02:01:56;;;;;;;15.55;6.93;;;;;;;15.03;100.00;97317.75;5132280;27;20021;-76
2023/06/09 02:04:24;;;;;;;11.77;6.50;;;;;;;15.03;100.00;97311.50;5131738;27;20390;-76
2023/06/09 02:06:51;;;;;;;13.60;6.88;;;;;;;15.05;100.00;97306.81;5132171;27;20035;-76
2023/06/09 02:09:16;;;;;;;9.48;6.65;;;;;;;15.01;100.00;97300.00;5114788;27;20114;-75
2023/06/09 02:11:42;;;;;;;11.98;5.70;;;;;;;14.99;100.00;97301.94;5114542;27;20105;-74
2023/06/09 02:14:07;;;;;;;10.50;5.82;;;;;;;14.91;100.00;97302.59;5131795;27;20030;-75
2023/06/09 02:16:34;;;;;;;13.07;5.63;;;;;;;14.83;100.00;97306.91;5131731;27;20019;-75
2023/06/09 02:19:00;;;;;;;14.88;8.18;;;;;;;14.76;100.00;97300.34;5114678;27;20050;-75
2023/06/09 02:21:25;;;;;;;10.50;6.60;;;;;;;14.84;100.00;97314.88;5114379;27;20026;-75
2023/06/09 02:23:51;;;;;;;17.38;6.40;;;;;;;14.78;100.00;97314.50;5131557;27;20027;-75
2023/06/09 02:26:17;;;;;;;10.93;6.40;;;;;;;14.81;100.00;97308.88;5097148;28;20084;-76
2023/06/09 02:28:42;;;;;;;11.30;6.18;;;;;;;14.79;100.00;97316.22;5118789;27;20503;-76
2023/06/09 02:31:08;;;;;;;11.93;5.97;;;;;;;14.65;100.00;97309.28;5126968;27;20031;-76
2023/06/09 02:33:34;;;;;;;13.13;6.15;;;;;;;14.65;100.00;97307.44;5131321;27;20479;-75
2023/06/09 02:35:59;;;;;;;13.30;5.65;;;;;;;14.60;100.00;97306.13;5114395;27;20037;-76
2023/06/09 02:38:26;;;;;;;14.10;6.43;;;;;;;14.58;100.00;97317.00;5131823;27;20410;-77
2023/06/09 02:40:52;;;;;;;11.13;6.25;;;;;;;14.49;100.00;97315.06;5131118;27;20463;-77
2023/06/09 02:43:17;;;;;;;14.70;7.20;;;;;;;14.55;100.00;97319.94;5131246;27;20106;-75
2023/06/09 02:45:43;;;;;;;13.98;7.00;;;;;;;14.53;100.00;97321.91;5131024;27;20406;-75
2023/06/09 02:48:09;;;;;;;15.05;7.05;;;;;;;14.48;100.00;97326.81;5114335;27;20034;-74
2023/06/09 02:50:35;;;;;;;17.80;7.15;;;;;;;14.41;100.00;97322.91;5131011;27;20027;-75
2023/06/09 02:53:00;;;;;;;13.93;7.35;;;;;;;14.41;100.00;97328.28;5131197;27;20110;-75
2023/06/09 02:55:26;;;;;;;14.00;7.68;;;;;;;14.37;100.00;97324.13;5113960;27;20031;-76
2023/06/09 02:57:51;;;;;;;17.85;10.45;;;;;;;14.40;100.00;97326.56;5113725;27;20474;-76
2023/06/09 03:00:17;;;;;;;17.05;10.23;;;;;;;14.42;100.00;97330.00;5131124;27;20565;-76
2023/06/09 03:02:43;;;;;;;24.48;10.25;;;;;;;14.50;100.00;97330.22;5130925;27;20026;-77
2023/06/09 03:05:10;;;;;;;17.83;8.93;;;;;;;14.59;100.00;97334.00;5126352;27;20028;-77
2023/06/09 03:07:36;;;;;;;14.98;8.57;;;;;;;14.51;100.00;97328.41;5127537;27;20582;-75
2023/06/09 03:10:03;;;;;;;17.33;7.93;;;;;;;14.52;100.00;97333.66;5109857;28;20059;-76
2023/06/09 03:12:29;;;;;;;15.90;7.70;;;;;;;14.41;100.00;97320.22;5093237;28;20092;-75
2023/06/09 03:14:55;;;;;;;10.38;6.70;;;;;;;14.45;100.00;97337.84;5109838;28;20020;-75
2023/06/09 03:17:20;;;;;;;20.92;7.25;;;;;;;14.39;100.00;97319.50;5107572;27;20033;-76
2023/06/09 03:19:46;;;;;;;13.68;6.63;;;;;;;14.47;100.00;97324.25;5130499;27;20027;-76
2023/06/09 03:22:11;;;;;;;13.38;6.93;;;;;;;14.46;100.00;97325.22;5113516;27;20035;-76
2023/06/09 03:24:37;;;;;;;17.75;6.25;;;;;;;14.51;100.00;97326.56;5130717;27;20074;-75
2023/06/09 03:27:03;;;;;;;18.30;6.20;;;;;;;14.50;100.00;97324.84;5130348;27;20114;-75
2023/06/09 03:29:28;;;;;;;23.58;7.35;;;;;;;14.54;100.00;97328.16;5130479;27;20397;-76
2023/06/09 03:31:55;;;;;;;15.70;7.22;;;;;;;14.64;100.00;97329.94;5113265;28;20027;-77
2023/06/09 03:34:20;;;;;;;12.48;6.65;;;;;;;14.63;100.00;97332.78;5130705;27;20466;-76
2023/06/09 03:36:46;;;;;;;16.65;7.10;;;;;;;14.70;100.00;97333.16;5131504;27;20027;-76
2023/06/09 03:39:12;;;;;;;10.35;6.75;;;;;;;14.77;100.00;97339.72;5109722;28;20402;-77
2023/06/09 03:41:37;;;;;;;15.38;7.20;;;;;;;14.78;100.00;97331.53;5111298;28;20092;-76
2023/06/09 03:44:03;;;;;;;11.50;6.15;;;;;;;14.95;100.00;97328.28;5092426;28;20531;-76
2023/06/09 03:46:29;;;;;;;15.55;6.75;;;;;;;15.06;100.00;97325.56;5107726;28;20027;-76
2023/06/09 03:48:54;;;;;;;13.10;6.88;;;;;;;15.11;100.00;97315.25;5111421;28;20055;-77
2023/06/09 03:51:20;;;;;;;13.20;6.90;;;;;;;15.20;100.00;97316.31;5092724;28;20047;-76
2023/06/09 03:53:45;;;;;;;10.38;6.68;;;;;;;15.29;100.00;97304.75;5092774;28;20153;-76
2023/06/09 03:56:11;;;;;;;11.27;6.55;;;;;;;15.36;100.00;97297.00;5111641;27;20034;-76
2023/06/09 03:58:37;;;;;;;21.05;6.55;;;;;;;15.44;100.00;97292.66;5131572;27;20451;-76
2023/06/09 04:01:02;;;;;;;13.73;6.15;;;;;;;15.58;100.00;97294.22;5131252;27;20027;-75
2023/06/09 04:03:28;;;;;;;10.10;6.25;;;;;;;15.71;100.00;97284.09;5113126;28;20061;-76
2023/06/09 04:05:54;;;;;;;11.25;6.78;;;;;;;15.78;100.00;97273.63;5130125;27;20084;-76
2023/06/09 04:08:19;;;;;;;12.13;6.90;;;;;;;15.91;100.00;97275.09;5105852;28;20037;-75
2023/06/09 04:10:45;;;;;;;10.07;6.80;;;;;;;16.06;100.00;97268.34;5123502;28;20032;-75
2023/06/09 04:13:11;;;;;;;18.73;6.57;;;;;;;16.12;100.00;97251.63;5120062;27;20031;-76
2023/06/09 04:15:37;;;;;;;9.40;6.53;;;;;;;16.30;100.00;97265.34;5130273;28;20030;-82
2023/06/09 04:18:03;;;;;;;17.73;6.65;;;;;;;16.43;100.00;97257.84;5093731;28;20052;-77
2023/06/09 04:20:29;;;;;;;35.67;18.75;;;;;;;16.56;100.00;97255.78;5103984;28;20027;-75
2023/06/09 04:22:58;;;;;;;38.70;16.00;;;;;;;16.67;100.00;97255.63;5127519;28;20023;-76
2023/06/09 04:25:25;;;;;;;15.55;7.20;;;;;;;16.65;100.00;97254.06;5101600;28;20033;-77
2023/06/09 04:27:55;;;;;;;14.93;7.47;;;;;;;16.73;100.00;97259.66;5110304;28;20023;-77
2023/06/09 04:30:29;;;;;;;13.85;6.88;;;;;;;16.79;100.00;97257.25;5126890;27;20023;-77
2023/06/09 04:32:58;;;;;;;15.40;6.13;;;;;;;16.88;100.00;97243.88;5111090;28;20030;-77
2023/06/09 04:35:24;;;;;;;12.30;6.28;;;;;;;16.90;100.00;97249.97;5101531;28;20026;-76
2023/06/09 04:37:50;;;;;;;15.57;6.97;;;;;;;17.09;100.00;97247.28;5126974;27;20047;-77
2023/06/09 04:40:22;;;;;;;13.15;6.47;;;;;;;17.15;100.00;97247.59;5126511;28;20102;-77
2023/06/09 04:42:56;;;;;;;15.55;6.50;;;;;;;17.24;100.00;97245.88;5125135;27;20496;-77
2023/06/09 04:45:27;;;;;;;16.20;7.55;;;;;;;17.19;100.00;97242.75;5111029;28;20398;-76
2023/06/09 04:47:59;;;;;;;22.63;7.70;;;;;;;17.35;100.00;97243.00;5113746;28;20462;-76
2023/06/09 04:50:36;;;;;;;19.40;7.43;;;;;;;17.79;100.00;97245.09;5103406;27;20452;-77
2023/06/09 04:53:07;;;;;;;15.80;7.03;;;;;;;18.88;100.00;97237.00;5101884;28;20031;-77
2023/06/09 04:55:33;;;;;;;28.50;16.73;;;;;;;19.60;100.00;97224.25;5124694;27;20501;-76
2023/06/09 04:57:59;;;;;;;14.07;7.10;;;;;;;20.18;100.00;97217.13;5133572;27;20039;-78
2023/06/09 05:00:29;;;;;;;15.63;6.82;;;;;;;20.72;100.00;97204.97;5100529;27;20070;-77
2023/06/09 05:02:57;;;;;;;20.70;8.80;;;;;;;21.33;100.00;97200.97;5133206;27;20098;-77
2023/06/09 05:05:23;;;;;;;8.82;5.90;;;;;;;21.54;100.00;97190.41;5115963;27;20035;-77
2023/06/09 05:07:48;;;;;;;27.05;9.73;;;;;;;22.46;100.00;97196.16;5116026;27;20042;-75
2023/06/09 05:10:14;;;;;;;9.23;6.75;;;;;;;22.99;100.00;97168.09;5115808;27;20026;-76
2023/06/09 05:12:39;;;;;;;13.88;5.68;;;;;;;23.25;100.00;97178.66;5133242;27;20394;-76
2023/06/09 05:15:06;;;;;;;11.75;5.65;;;;;;;24.05;100.00;97179.78;5116096;27;20031;-77
2023/06/09 05:17:33;;;;;;;22.08;8.88;;;;;;;25.08;100.00;97172.28;5115659;27;20032;-75
2023/06/09 05:19:59;;;;;;;15.35;8.77;;;;;;;24.93;100.00;97165.16;5133220;27;20110;-77
2023/06/09 05:22:24;;;;;;;21.08;6.10;;;;;;;25.29;100.00;97171.44;5132926;27;20103;-76
2023/06/09 05:24:50;;;;;;;15.80;6.10;;;;;;;26.19;94.47;97166.09;5133220;27;20397;-76
2023/06/09 05:27:15;;;;;;;11.20;5.32;;;;;;;26.07;92.63;97163.03;5124773;27;20034;-76
2023/06/09 05:29:41;;;;;;;45.13;25.13;;;;;;;26.45;88.48;97158.03;5103855;28;20027;-76
2023/06/09 05:32:07;;;;;;;14.95;7.15;;;;;;;25.56;93.37;97158.88;5129704;27;20328;-77
2023/06/09 05:34:32;;;;;;;15.40;5.80;;;;;;;25.74;93.80;97164.72;5115274;27;20102;-76
2023/06/09 05:36:58;;;;;;;9.32;5.15;;;;;;;25.60;92.98;97158.28;5115599;27;20023;-76
2023/06/09 05:39:23;;;;;;;9.70;5.20;;;;;;;25.51;94.43;97153.13;5115892;27;20026;-77
2023/06/09 05:41:50;;;;;;;21.65;7.00;;;;;;;26.32;91.71;97156.06;5115508;27;20118;-76
2023/06/09 05:44:15;;;;;;;12.73;7.38;;;;;;;27.47;84.77;97150.56;5123306;27;20028;-76
2023/06/09 05:46:41;;;;;;;12.00;4.78;;;;;;;27.79;77.08;97129.59;5130139;27;20505;-76
2023/06/09 05:49:06;;;;;;;10.90;4.35;;;;;;;28.22;75.14;97124.47;5132423;27;20027;-77
2023/06/09 05:51:35;;;;;;;13.00;5.57;;;;;;;28.91;71.06;97130.16;5112346;27;20050;-77
2023/06/09 05:54:01;;;;;;;10.57;5.35;;;;;;;29.44;65.50;97114.16;5094753;28;20059;-77
2023/06/09 05:56:26;;;;;;;11.63;4.88;;;;;;;28.09;71.36;97110.72;5130672;27;20399;-76
2023/06/09 05:58:54;;;;;;;9.40;4.68;;;;;;;28.14;73.24;97111.81;5112088;27;20034;-76
2023/06/09 06:01:27;;;;;;;18.40;5.57;;;;;;;28.77;70.67;97123.00;5097818;28;20096;-77
2023/06/09 06:03:53;;;;;;;23.55;12.90;;;;;;;29.35;67.86;97127.34;5112739;27;20110;-78
2023/06/09 06:06:19;;;;;;;44.95;29.10;;;;;;;29.97;61.98;97114.53;5115091;27;20196;-78
2023/06/09 06:08:44;;;;;;;11.57;5.18;;;;;;;29.48;62.46;97098.81;5115031;27;20022;-77
2023/06/09 06:11:10;;;;;;;7.57;4.30;;;;;;;29.07;62.15;97093.81;5118837;27;20023;-76
2023/06/09 06:13:35;;;;;;;18.45;9.27;;;;;;;28.91;67.88;97106.22;5094304;28;20080;-78
2023/06/09 06:16:01;;;;;;;8.60;4.50;;;;;;;28.60;66.80;97086.00;5124761;27;20455;-78
2023/06/09 06:18:26;;;;;;;13.70;6.80;;;;;;;28.82;67.81;97098.44;5131917;27;20065;-79
2023/06/09 06:20:52;;;;;;;9.02;4.43;;;;;;;28.06;69.82;97092.75;5121502;27;20407;-78
2023/06/09 06:23:18;;;;;;;14.27;6.30;;;;;;;28.25;69.12;97094.63;5109197;27;20110;-78
2023/06/09 06:25:43;;;;;;;12.25;7.10;;;;;;;28.66;69.10;97099.78;5113425;27;20494;-77
2023/06/09 06:28:13;;;;;;;13.45;4.90;;;;;;;29.41;64.36;97103.56;5114554;27;20047;-79
2023/06/09 06:30:40;;;;;;;6.10;4.13;;;;;;;29.40;62.03;97091.69;5131832;27;20466;-78
2023/06/09 06:33:06;;;;;;;10.43;4.55;;;;;;;28.67;65.33;97079.41;5110955;28;20051;-78
2023/06/09 06:35:32;;;;;;;8.68;4.55;;;;;;;28.61;65.50;97076.69;5094017;28;20106;-77
2023/06/09 06:37:57;;;;;;;25.35;4.47;;;;;;;29.07;65.76;97091.06;5112841;27;20439;-77
2023/06/09 06:40:24;;;;;;;9.23;6.13;;;;;;;29.64;62.49;97081.72;5114294;27;20064;-79
2023/06/09 06:42:49;;;;;;;13.18;4.90;;;;;;;30.39;59.29;97090.75;5131085;27;20051;-77
2023/06/09 06:45:16;;;;;;;10.27;4.63;;;;;;;31.12;56.06;97091.50;5114265;27;20059;-77
2023/06/09 06:47:43;;;;;;;17.75;5.63;;;;;;;30.93;56.78;97081.53;5131079;27;20441;-77
2023/06/09 06:50:09;;;;;;;12.88;4.60;;;;;;;31.48;54.12;97079.41;5114310;27;20023;-78
2023/06/09 06:52:35;;;;;;;5.30;3.80;;;;;;;30.84;53.81;97069.13;5131469;27;20109;-78
2023/06/09 06:55:01;;;;;;;11.07;4.50;;;;;;;31.61;52.05;97070.94;5111932;27;20110;-80
2023/06/09 06:57:27;;;;;;;7.15;4.97;;;;;;;31.81;51.38;97065.06;5126538;27;20420;-79
2023/06/09 06:59:52;;;;;;;8.48;4.32;;;;;;;32.36;48.08;97063.59;5113842;27;20103;-79
2023/06/09 07:02:18;;;;;;;9.60;4.38;;;;;;;32.18;48.81;97064.56;5131526;27;20035;-79
2023/06/09 07:04:43;;;;;;;6.38;4.10;;;;;;;32.75;46.50;97048.06;5125318;27;20055;-79
2023/06/09 07:07:10;;;;;;;6.15;4.20;;;;;;;33.13;46.35;97056.56;5130861;27;20034;-78
2023/06/09 07:09:38;;;;;;;7.10;3.88;;;;;;;32.69;46.15;97040.75;5130991;27;20470;-79
2023/06/09 07:12:05;;;;;;;5.85;4.13;;;;;;;32.44;46.47;97034.66;5094557;28;20130;-78
2023/06/09 07:14:31;;;;;;;8.75;4.43;;;;;;;32.99;45.69;97051.56;5103035;28;20023;-79
2023/06/09 07:16:56;;;;;;;7.40;4.30;;;;;;;33.22;44.83;97046.75;5102765;27;20026;-79
2023/06/09 07:19:22;;;;;;;10.05;4.38;;;;;;;34.14;43.32;97057.47;5105976;28;20420;-78
2023/06/09 07:21:48;;;;;;;6.47;4.05;;;;;;;33.53;44.45;97045.34;5117210;27;20019;-78
2023/06/09 07:24:13;;;;;;;5.60;3.40;;;;;;;32.03;46.72;97021.84;5113585;27;20059;-79
2023/06/09 07:26:39;;;;;;;4.53;3.50;;;;;;;30.97;49.50;97025.59;5113797;27;20107;-79
2023/06/09 07:29:05;;;;;;;5.35;3.72;;;;;;;31.04;51.59;97039.31;5113546;27;20041;-79
2023/06/09 07:31:30;;;;;;;7.53;3.20;;;;;;;32.71;47.78;97063.50;5131075;27;20440;-79
2023/06/09 07:33:56;;;;;;;10.13;4.00;;;;;;;32.98;48.17;97061.00;5113938;27;20546;-78
2023/06/09 07:36:22;;;;;;;11.23;3.95;;;;;;;33.24;nan;97069.56;5129414;27;20076;-80
2023/06/09 07:38:47;;;;;;;11.73;3.60;;;;;;;32.32;47.11;97044.91;5126171;27;20023;-78
2023/06/09 07:41:13;;;;;;;4.20;3.10;;;;;;;31.56;46.74;97032.91;5130232;27;20030;-78
2023/06/09 07:43:39;;;;;;;7.80;3.50;;;;;;;31.90;49.26;97045.06;5113308;28;20038;-76
2023/06/09 07:46:05;;;;;;;8.80;3.72;;;;;;;32.91;45.80;97049.22;5095322;28;20059;-77
2023/06/09 07:48:30;;;;;;;6.22;3.33;;;;;;;32.77;46.41;97045.03;5109688;28;20470;-76
2023/06/09 07:50:56;;;;;;;4.03;3.47;;;;;;;33.32;44.10;97048.88;5109636;28;20502;-76
2023/06/09 07:53:22;;;;;;;3.78;3.10;;;;;;;34.04;42.47;97051.72;5129690;27;20023;-77
2023/06/09 07:55:48;;;;;;;4.55;2.85;;;;;;;33.48;40.65;97030.56;5111244;28;20051;-77
2023/06/09 07:58:13;;;;;;;11.65;3.20;;;;;;;34.88;40.13;97052.31;5110960;28;20096;-76
2023/06/09 08:00:39;;;;;;;5.15;3.60;;;;;;;33.59;40.51;97015.78;5124396;28;20080;-77
2023/06/09 08:03:05;;;;;;;4.68;3.30;;;;;;;34.02;41.12;97042.81;5130582;27;20442;-77
2023/06/09 08:05:31;;;;;;;7.93;2.85;;;;;;;33.16;42.58;97013.66;5127428;28;20214;-77
2023/06/09 08:08:00;;;;;;;4.43;3.10;;;;;;;33.49;41.56;97033.09;5092973;28;20039;-77
2023/06/09 08:10:26;;;;;;;10.90;4.00;;;;;;;34.63;39.72;97044.53;5128440;27;20448;-77
2023/06/09 08:12:51;;;;;;;4.80;3.22;;;;;;;34.28;40.28;97039.31;5130541;27;20088;-78
2023/06/09 08:15:17;;;;;;;5.95;3.00;;;;;;;34.04;40.54;97029.50;5112866;28;20034;-76
2023/06/09 08:17:42;;;;;;;6.53;3.38;;;;;;;34.79;38.95;97022.19;5130035;27;20092;-76
2023/06/09 08:20:08;;;;;;;4.03;2.88;;;;;;;34.97;39.29;97029.34;5114232;28;20036;-76
2023/06/09 08:22:34;;;;;;;6.28;3.10;;;;;;;35.41;38.20;97024.50;5129198;28;20023;-77
2023/06/09 08:24:59;;;;;;;6.32;3.30;;;;;;;34.89;37.92;96999.22;5130218;27;20027;-76
2023/06/09 08:27:25;;;;;;;7.93;3.42;;;;;;;33.75;40.36;97021.31;5132843;27;20030;-76
2023/06/09 08:29:51;;;;;;;7.57;3.15;;;;;;;34.99;39.97;97032.72;5134275;27;20023;-77
2023/06/09 08:32:16;;;;;;;8.98;3.72;;;;;;;34.74;40.32;97013.81;5134222;27;20080;-78
2023/06/09 08:34:42;;;;;;;4.47;3.47;;;;;;;35.35;39.55;97025.56;5089492;28;20020;-76
2023/06/09 08:37:08;;;;;;;7.72;3.67;;;;;;;35.59;38.30;97013.03;5111909;27;20123;-77
2023/06/09 08:39:49;;;;;;;9.82;3.05;;;;;;;36.12;37.22;97025.06;5122991;27;20019;-79
2023/06/09 08:42:29;;;;;;;6.82;3.17;;;;;;;35.53;37.57;97008.50;5114367;28;20045;-77
2023/06/09 08:45:04;;;;;;;8.23;3.50;;;;;;;35.30;37.87;97008.84;5128552;27;20023;-77
2023/06/09 08:47:32;;;;;;;4.07;2.80;;;;;;;36.05;37.16;97013.34;5133651;27;20035;-77
2023/06/09 08:49:59;;;;;;;5.68;3.33;;;;;;;36.81;36.59;97025.69;5132146;27;20031;-78
2023/06/09 08:52:46;;;;;;;11.43;4.80;;;;;;;38.35;34.94;97038.38;5098925;28;20124;-76
2023/06/09 08:55:13;;;;;;;4.18;3.20;;;;;;;37.73;34.69;97000.44;5106986;27;20019;-78
2023/06/09 08:57:40;;;;;;;6.13;3.15;;;;;;;35.74;37.28;96968.59;5133438;27;20027;-78
2023/06/09 09:00:11;;;;;;;6.35;3.60;;;;;;;35.03;39.84;96983.81;5116214;27;20405;-76
2023/06/09 09:02:36;;;;;;;7.17;3.33;;;;;;;36.23;37.63;97004.53;5133101;27;20458;-77
2023/06/09 09:05:02;;;;;;;5.68;3.20;;;;;;;36.81;36.31;97001.44;5126479;27;20310;-77
2023/06/09 09:07:28;;;;;;;6.72;3.83;;;;;;;38.28;34.98;97026.63;5122792;27;20024;-78
2023/06/09 09:09:54;;;;;;;3.88;3.40;;;;;;;36.80;36.07;96971.88;5126925;27;20027;-77
2023/06/09 09:12:19;;;;;;;6.95;3.38;;;;;;;36.51;37.48;96995.75;5133510;27;20042;-78
2023/06/09 09:14:46;;;;;;;8.90;3.55;;;;;;;34.57;37.62;96956.59;5130430;27;20031;-78
2023/06/09 09:17:14;;;;;;;5.00;3.28;;;;;;;36.05;37.17;97002.22;5112121;27;20027;-79
2023/06/09 09:19:51;;;;;;;5.38;3.30;;;;;;;36.99;35.72;96993.69;5132992;27;20047;-78
2023/06/09 09:22:17;;;;;;;7.60;3.65;;;;;;;36.46;35.01;96962.25;5117082;27;20549;-78
2023/06/09 09:24:44;;;;;;;6.15;3.30;;;;;;;36.19;35.53;96969.97;5133468;27;20470;-78
2023/06/09 09:27:17;;;;;;;4.47;3.10;;;;;;;37.63;33.47;96992.06;5112892;27;20027;-78
2023/06/09 09:29:44;;;;;;;7.25;2.92;;;;;;;39.10;32.21;97011.22;5107974;28;20019;-78
2023/06/09 09:32:09;;;;;;;8.52;3.17;;;;;;;37.22;34.10;96948.53;5095289;28;20050;-78
2023/06/09 09:34:35;;;;;;;7.53;3.30;;;;;;;37.16;34.33;96956.06;5131797;27;20012;-78
2023/06/09 09:37:01;;;;;;;5.90;3.35;;;;;;;38.00;33.60;96969.41;5132403;27;20398;-78
2023/06/09 09:39:27;;;;;;;4.53;3.40;;;;;;;38.31;33.46;96986.94;5132745;27;20501;-77
2023/06/09 09:42:10;;;;;;;8.23;3.22;;;;;;;38.69;32.46;96960.22;5115745;27;20031;-77
2023/06/09 09:44:43;;;;;;;10.18;3.47;;;;;;;39.40;32.19;96981.06;5133991;27;20019;-78
2023/06/09 09:47:12;;;;;;;5.68;2.90;;;;;;;39.48;32.17;96985.19;5099316;28;20104;-78
2023/06/09 09:49:37;;;;;;;5.05;2.97;;;;;;;39.45;31.09;96964.19;5111996;28;20027;-78
2023/06/09 09:52:08;;;;;;;6.32;3.20;;;;;;;38.29;32.22;96939.69;5127678;27;20031;-78
2023/06/09 09:54:36;;;;;;;4.27;3.20;;;;;;;39.19;32.67;96959.94;5115265;27;20023;-78
2023/06/09 09:57:02;;;;;;;5.15;3.30;;;;;;;38.84;31.70;96927.44;5132473;27;20020;-78
2023/06/09 09:59:28;;;;;;;7.45;2.97;;;;;;;39.08;32.87;96949.91;5131992;27;20406;-78
2023/06/09 10:01:55;;;;;;;5.65;3.03;;;;;;;38.57;33.03;96946.59;5126701;27;20024;-76
2023/06/09 10:04:23;;;;;;;7.68;4.07;;;;;;;39.69;31.13;96964.28;5112355;27;20030;-77
2023/06/09 10:06:53;;;;;;;19.63;7.28;;;;;;;39.52;32.36;96947.06;5114916;27;20070;-76
2023/06/09 10:09:22;;;;;;;8.68;3.83;;;;;;;38.99;31.58;96918.91;5132074;27;20015;-77
2023/06/09 10:11:48;;;;;;;4.25;3.20;;;;;;;38.58;32.65;96925.88;5131884;27;20031;-78
2023/06/09 10:14:14;;;;;;;5.03;3.35;;;;;;;38.26;33.19;96920.72;5133298;27;20026;-78
2023/06/09 10:16:40;;;;;;;6.38;3.70;;;;;;;37.90;33.96;96936.75;5131895;27;20027;-77
2023/06/09 10:19:06;;;;;;;4.88;3.33;;;;;;;38.42;33.46;96930.69;5114886;27;20047;-77
2023/06/09 10:21:35;;;;;;;7.00;3.35;;;;;;;39.13;31.67;96935.91;5123463;27;20034;-78
2023/06/09 10:24:01;;;;;;;4.45;3.17;;;;;;;38.89;32.12;96929.34;5118949;27;20398;-78
2023/06/09 10:26:27;;;;;;;6.22;3.22;;;;;;;37.72;32.45;96916.94;5111434;28;20030;-78
2023/06/09 10:28:52;;;;;;;9.27;3.00;;;;;;;39.33;31.63;96952.56;5110960;28;20019;-78
2023/06/09 10:31:18;;;;;;;4.40;3.95;;;;;;;39.63;31.38;96931.81;5112487;28;20034;-79
2023/06/09 10:33:45;;;;;;;5.20;3.45;;;;;;;38.64;31.82;96907.94;5094128;28;20487;-86
2023/06/09 10:36:10;;;;;;;11.65;3.55;;;;;;;37.45;33.59;96918.13;5094602;28;20040;-82
2023/06/09 10:38:44;;;;;;;6.88;3.42;;;;;;;37.34;33.51;96927.59;5128667;27;20033;-81
2023/06/09 10:41:28;;;;;;;8.07;3.55;;;;;;;38.01;33.41;96939.53;5110325;28;20495;-82
2023/06/09 10:44:16;;;;;;;5.22;3.40;;;;;;;38.41;33.16;96931.00;5112235;27;20023;-82
2023/06/09 10:46:45;;;;;;;11.13;3.55;;;;;;;37.59;34.06;96935.13;5121412;27;20052;-83
2023/06/09 10:49:26;;;;;;;5.55;3.50;;;;;;;38.09;33.38;96947.31;5100759;28;20106;-82
2023/06/09 10:51:53;;;;;;;6.20;3.40;;;;;;;38.08;33.70;96937.28;5121647;27;20455;-82
2023/06/09 10:54:20;;;;;;;6.53;3.42;;;;;;;37.67;34.22;96926.19;5108944;28;20084;-83
2023/06/09 10:56:52;;;;;;;4.82;3.55;;;;;;;35.93;35.73;96915.22;5103359;27;20060;-82
2023/06/09 10:59:23;;;;;;;5.57;3.50;;;;;;;34.21;37.62;96913.69;5114944;27;20023;-81
2023/06/09 11:02:04;;;;;;;4.63;3.40;;;;;;;33.47;39.38;96924.28;5121495;27;20506;-81
2023/06/09 11:04:49;;;;;;;6.43;3.30;;;;;;;33.67;39.37;96932.13;5119882;27;20055;-83
2023/06/09 11:07:21;;;;;;;7.15;3.40;;;;;;;33.31;40.95;96936.28;5110914;28;20028;-82
2023/06/09 11:09:46;;;;;;;6.78;3.33;;;;;;;32.61;41.47;96928.38;5093482;28;20549;-81
2023/06/09 11:12:46;;;;;;;8.82;5.53;;;;;;;31.52;44.61;96936.84;5115450;27;20027;-81
2023/06/09 11:15:15;;;;;;;4.65;3.30;;;;;;;31.35;46.30;96930.34;5079688;28;20065;-83
2023/06/09 11:17:43;;;;;;;7.03;3.20;;;;;;;31.36;47.85;96949.44;5094173;28;20208;-82
2023/06/09 11:20:08;;;;;;;4.88;2.97;;;;;;;31.46;48.97;96954.38;5097685;27;20083;-83
2023/06/09 11:22:36;;;;;;;4.30;3.00;;;;;;;31.43;49.23;96954.88;5131282;27;20180;-82
2023/06/09 11:25:02;;;;;;;9.68;3.38;;;;;;;31.09;50.40;96957.38;5129702;27;20478;-82
2023/06/09 11:27:27;;;;;;;6.38;3.55;;;;;;;31.03;49.62;96960.25;5108388;27;20034;-82